createdAt,value
2022-08-31T00:00:12.413Z,101844.63
2022-08-31T00:02:58.023Z,101835.91
2022-08-31T00:05:25.458Z,101829.69
2022-08-31T00:07:53.024Z,101836.81
2022-08-31T00:10:31.887Z,101841.22
2022-08-31T00:13:02.909Z,101831.56
2022-08-31T00:15:30.307Z,101843.88
2022-08-31T00:17:58.482Z,101842.22
2022-08-31T00:20:33.784Z,101834.25
2022-08-31T00:23:09.038Z,101838.72
2022-08-31T00:25:38.300Z,101840.47
2022-08-31T00:28:06.515Z,101844.03
2022-08-31T00:30:34.711Z,101841.34
2022-08-31T00:33:02.765Z,101850.22
2022-08-31T00:35:32.755Z,101839.53
2022-08-31T00:38:00.540Z,101836.03
2022-08-31T00:40:28.350Z,101837.00
2022-08-31T00:42:56.670Z,101834.25
2022-08-31T00:45:24.253Z,101836.03
2022-08-31T00:47:52.576Z,101834.22
2022-08-31T00:50:21.953Z,101836.88
2022-08-31T00:52:56.065Z,101834.19
2022-08-31T00:55:37.170Z,101837.72
2022-08-31T00:58:10.570Z,101835.03
2022-08-31T01:00:40.351Z,101837.72
2022-08-31T01:03:08.774Z,101842.13
2022-08-31T01:05:37.084Z,101833.25
2022-08-31T01:08:05.587Z,101827.09
2022-08-31T01:10:38.593Z,101841.22
2022-08-31T01:13:07.252Z,101828.84
2022-08-31T01:15:35.839Z,101827.97
2022-08-31T01:18:04.774Z,101834.16
2022-08-31T01:21:15.105Z,101844.88
2022-08-31T01:23:44.725Z,101833.34
2022-08-31T01:26:17.849Z,101826.31
2022-08-31T01:28:45.095Z,101831.66
2022-08-31T01:31:28.684Z,101829.09
2022-08-31T01:33:56.169Z,101827.31
2022-08-31T01:36:25.391Z,101828.28
2022-08-31T01:38:53.504Z,101835.34
2022-08-31T01:41:21.800Z,101836.25
2022-08-31T01:43:49.077Z,101832.78
2022-08-31T01:46:16.353Z,101839.00
2022-08-31T01:48:46.267Z,101833.69
2022-08-31T01:51:17.168Z,101836.44
2022-08-31T01:53:48.340Z,101837.31
2022-08-31T01:56:20.937Z,101839.97
2022-08-31T01:58:48.045Z,101838.22
2022-08-31T02:01:32.791Z,101836.50
2022-08-31T02:04:06.614Z,101836.53
2022-08-31T02:06:35.675Z,101845.38
2022-08-31T02:09:06.029Z,101834.75
2022-08-31T02:11:33.296Z,101838.28
2022-08-31T02:14:00.339Z,101845.38
2022-08-31T02:16:27.403Z,101849.78
2022-08-31T02:18:54.896Z,101846.25
2022-08-31T02:21:22.556Z,101857.72
2022-08-31T02:23:49.830Z,101854.22
2022-08-31T02:26:17.207Z,101855.06
2022-08-31T02:28:44.320Z,101847.09
2022-08-31T02:31:11.677Z,101855.13
2022-08-31T02:33:38.941Z,101855.13
2022-08-31T02:36:07.053Z,101856.88
2022-08-31T02:38:37.839Z,101859.56
2022-08-31T02:41:06.427Z,101856.97
2022-08-31T02:43:33.635Z,101855.19
2022-08-31T02:46:01.505Z,101862.38
2022-08-31T02:48:28.761Z,101862.38
2022-08-31T02:51:02.716Z,101855.38
2022-08-31T02:53:29.690Z,101859.75
2022-08-31T02:55:56.832Z,101853.59
2022-08-31T02:58:24.240Z,101848.31
2022-08-31T03:00:52.595Z,101852.78
2022-08-31T03:03:21.880Z,101848.38
2022-08-31T03:05:50.545Z,101857.19
2022-08-31T03:08:18.365Z,101850.16
2022-08-31T03:10:46.732Z,101843.97
2022-08-31T03:13:13.888Z,101846.66
2022-08-31T03:15:43.805Z,101841.38
2022-08-31T03:18:11.046Z,101830.75
2022-08-31T03:20:38.310Z,101833.44
2022-08-31T03:23:06.141Z,101837.88
2022-08-31T03:25:33.163Z,101832.53
2022-08-31T03:28:01.310Z,101830.78
2022-08-31T03:30:29.916Z,101831.69
2022-08-31T03:33:02.294Z,101832.59
2022-08-31T03:35:30.774Z,101831.72
2022-08-31T03:37:57.784Z,101835.22
2022-08-31T03:40:25.023Z,101839.66
2022-08-31T03:42:52.185Z,101839.66
2022-08-31T03:45:20.059Z,101847.56
2022-08-31T03:47:47.056Z,101843.13
2022-08-31T03:50:15.990Z,101838.78
2022-08-31T03:52:43.184Z,101834.38
2022-08-31T03:55:12.096Z,101836.13
2022-08-31T03:57:39.282Z,101847.66
2022-08-31T04:00:09.201Z,101857.41
2022-08-31T04:02:39.749Z,101860.97
2022-08-31T04:05:08.169Z,101859.22
2022-08-31T04:07:42.168Z,101853.94
2022-08-31T04:10:14.589Z,101859.22
2022-08-31T04:12:41.909Z,101855.72
2022-08-31T04:15:10.675Z,101852.19
2022-08-31T04:17:38.453Z,101862.84
2022-08-31T04:20:07.027Z,101852.19
2022-08-31T04:22:34.207Z,101855.75
2022-08-31T04:25:01.237Z,101852.22
2022-08-31T04:27:28.490Z,101861.94
2022-08-31T04:29:55.491Z,101860.19
2022-08-31T04:32:22.555Z,101858.44
2022-08-31T04:34:56.545Z,101855.78
2022-08-31T04:37:23.817Z,101862.84
2022-08-31T04:39:52.264Z,101855.75
2022-08-31T04:42:20.159Z,101858.47
2022-08-31T04:44:47.719Z,101862.88
2022-08-31T04:47:14.780Z,101862.91
2022-08-31T04:49:41.942Z,101867.31
2022-08-31T04:52:09.380Z,101873.50
2022-08-31T04:54:36.384Z,101869.06
2022-08-31T04:57:03.442Z,101875.25
2022-08-31T04:59:30.593Z,101869.03
2022-08-31T05:01:58.991Z,101873.47
2022-08-31T05:04:28.966Z,101871.72
2022-08-31T05:06:56.168Z,101863.75
2022-08-31T05:09:23.890Z,101863.75
2022-08-31T05:11:55.318Z,101862.88
2022-08-31T05:14:24.183Z,101863.75
2022-08-31T05:16:52.134Z,101874.34
2022-08-31T05:19:20.524Z,101866.41
2022-08-31T05:21:47.798Z,101869.06
2022-08-31T05:24:21.648Z,101863.78
2022-08-31T05:26:52.963Z,101879.69
2022-08-31T05:29:24.030Z,101880.53
2022-08-31T05:31:52.762Z,101890.28
2022-08-31T05:34:21.787Z,101882.31
2022-08-31T05:36:56.979Z,101884.97
2022-08-31T05:39:26.034Z,101880.56
2022-08-31T05:41:54.188Z,101875.25
2022-08-31T05:44:21.378Z,101877.88
2022-08-31T05:46:52.206Z,101886.75
2022-08-31T05:49:27.749Z,101879.66
2022-08-31T05:51:57.115Z,101888.47
2022-08-31T05:54:24.195Z,101891.13
2022-08-31T05:56:51.763Z,101879.63
2022-08-31T05:59:19.065Z,101886.72
2022-08-31T06:01:46.580Z,101899.94
2022-08-31T06:04:14.153Z,101902.59
2022-08-31T06:06:41.388Z,101905.22
2022-08-31T06:09:09.721Z,101903.50
2022-08-31T06:11:42.267Z,101906.16
2022-08-31T06:14:11.087Z,101899.91
2022-08-31T06:16:39.436Z,101905.25
2022-08-31T06:19:07.425Z,101909.69
2022-08-31T06:21:49.730Z,101909.63
2022-08-31T06:24:19.755Z,101906.06
2022-08-31T06:26:56.658Z,101916.69
2022-08-31T06:29:25.435Z,101917.56
2022-08-31T06:31:52.690Z,101912.25
2022-08-31T06:34:21.294Z,101914.81
2022-08-31T06:36:49.034Z,101915.66
2022-08-31T06:39:16.984Z,101916.63
2022-08-31T06:41:44.155Z,101928.09
2022-08-31T06:44:14.072Z,101919.22
2022-08-31T06:46:42.224Z,101923.53
2022-08-31T06:49:15.142Z,101927.97
2022-08-31T06:51:44.061Z,101918.22
2022-08-31T06:54:28.957Z,101921.75
2022-08-31T06:56:59.116Z,101928.69
2022-08-31T06:59:29.252Z,101921.56
2022-08-31T07:02:01.323Z,101926.91
2022-08-31T07:04:36.914Z,101938.25
2022-08-31T07:07:08.905Z,101936.63
2022-08-31T07:09:36.058Z,101933.03
2022-08-31T07:12:04.429Z,101936.53
2022-08-31T07:14:32.076Z,101942.59
2022-08-31T07:17:03.082Z,101943.59
2022-08-31T07:19:30.701Z,101940.00
2022-08-31T07:22:01.671Z,101938.28
2022-08-31T07:24:33.355Z,101942.63
2022-08-31T07:27:09.996Z,101939.97
2022-08-31T07:29:42.857Z,101940.00
2022-08-31T07:32:13.486Z,101945.41
2022-08-31T07:34:41.382Z,101937.38
2022-08-31T07:37:27.547Z,101940.91
2022-08-31T07:40:13.365Z,101945.13
2022-08-31T07:42:44.414Z,101940.59
2022-08-31T07:45:29.129Z,101944.38
2022-08-31T07:48:00.554Z,101948.75
2022-08-31T07:50:30.707Z,101949.44
2022-08-31T07:52:59.085Z,101952.09
2022-08-31T07:55:29.144Z,101952.81
2022-08-31T07:57:57.547Z,101952.47
2022-08-31T08:00:28.407Z,101956.09
2022-08-31T08:02:56.714Z,101958.56
2022-08-31T08:05:28.922Z,101961.84
2022-08-31T08:08:08.426Z,101965.16
2022-08-31T08:10:43.990Z,101972.38
2022-08-31T08:13:17.037Z,101971.22
2022-08-31T08:15:47.921Z,101979.38
2022-08-31T08:18:15.203Z,101974.78
2022-08-31T08:20:42.387Z,101983.50
2022-08-31T08:23:18.418Z,101994.06
2022-08-31T08:25:54.065Z,101981.31
2022-08-31T08:31:15.590Z,101992.28
2022-08-31T08:33:43.862Z,101988.81
2022-08-31T08:36:13.083Z,101986.97
2022-08-31T08:38:43.888Z,101985.41
2022-08-31T08:41:27.786Z,101983.22
2022-08-31T08:43:58.931Z,101983.13
2022-08-31T08:46:48.449Z,101994.63
2022-08-31T08:49:19.622Z,101989.16
2022-08-31T08:51:51.901Z,101990.50
2022-08-31T08:54:38.742Z,101997.59
2022-08-31T08:57:27.072Z,102001.81
2022-08-31T09:00:01.595Z,101989.38
2022-08-31T09:03:02.053Z,101986.72
2022-08-31T09:06:10.103Z,101990.25
2022-08-31T09:08:53.353Z,101987.09
2022-08-31T09:11:52.656Z,101988.47
2022-08-31T09:15:15.446Z,101990.59
2022-08-31T09:18:03.817Z,101994.25
2022-08-31T09:20:33.803Z,101980.53
2022-08-31T09:23:01.182Z,101992.75
2022-08-31T09:25:34.693Z,101984.03
2022-08-31T09:28:09.057Z,101993.72
2022-08-31T09:30:45.212Z,101987.97
2022-08-31T09:33:27.910Z,101976.91
2022-08-31T09:36:22.503Z,101976.13
2022-08-31T09:38:50.347Z,101980.06
2022-08-31T09:41:37.756Z,101982.06
2022-08-31T09:44:35.143Z,101973.53
2022-08-31T09:47:06.769Z,101974.56
2022-08-31T09:49:38.318Z,101980.06
2022-08-31T09:52:47.805Z,101973.31
2022-08-31T09:55:25.386Z,101982.66
2022-08-31T09:58:11.303Z,101973.56
2022-08-31T10:00:42.942Z,101976.88
2022-08-31T10:03:28.344Z,101972.47
2022-08-31T10:05:56.548Z,101979.91
2022-08-31T10:08:58.105Z,101977.94
2022-08-31T10:11:32.476Z,101978.31
2022-08-31T10:14:29.991Z,101971.91
2022-08-31T10:17:15.308Z,101971.03
2022-08-31T10:20:06.852Z,101972.34
2022-08-31T10:22:56.089Z,101968.59
2022-08-31T10:25:38.310Z,101963.00
2022-08-31T10:28:17.489Z,101972.38
2022-08-31T10:31:21.201Z,101960.38
2022-08-31T10:34:37.049Z,101973.47
2022-08-31T10:37:12.610Z,101971.81
2022-08-31T10:39:54.044Z,101967.88
2022-08-31T10:42:41.406Z,101962.44
2022-08-31T10:45:18.584Z,101968.22
2022-08-31T10:47:50.771Z,101973.34
2022-08-31T10:50:49.271Z,101958.22
2022-08-31T10:53:32.708Z,101965.41
2022-08-31T10:56:20.937Z,101960.75
2022-08-31T10:59:10.682Z,101964.00
2022-08-31T11:01:55.771Z,101956.38
2022-08-31T11:04:42.952Z,101964.19
2022-08-31T11:07:15.982Z,101954.13
2022-08-31T11:09:50.191Z,101955.38
2022-08-31T11:12:25.922Z,101955.06
2022-08-31T11:15:30.533Z,101969.72
2022-08-31T11:18:25.224Z,101963.06
2022-08-31T11:21:29.891Z,101959.72
2022-08-31T11:24:28.326Z,101957.97
2022-08-31T11:27:34.168Z,101953.41
2022-08-31T11:30:26.766Z,101949.16
2022-08-31T11:33:00.199Z,101944.78
2022-08-31T11:36:06.491Z,101956.50
2022-08-31T11:38:54.729Z,101939.75
2022-08-31T11:41:51.079Z,101952.06
2022-08-31T11:44:30.125Z,101935.09
2022-08-31T11:47:14.528Z,101943.81
2022-08-31T11:49:51.337Z,101928.25
2022-08-31T11:52:39.107Z,101942.56
2022-08-31T11:55:45.790Z,101921.31
2022-08-31T11:58:26.056Z,101920.03
2022-08-31T12:01:12.537Z,101914.75
2022-08-31T12:03:56.667Z,101905.53
2022-08-31T12:06:28.033Z,101910.53
2022-08-31T12:09:36.781Z,101912.56
2022-08-31T12:12:22.686Z,101899.16
2022-08-31T12:15:00.483Z,101903.97
2022-08-31T12:18:18.631Z,101913.78
2022-08-31T12:21:57.782Z,101900.06
2022-08-31T12:25:08.603Z,101897.53
2022-08-31T12:28:06.777Z,101888.13
2022-08-31T12:30:33.820Z,101896.91
2022-08-31T12:33:27.465Z,101892.94
2022-08-31T12:36:17.294Z,101884.41
2022-08-31T12:38:44.915Z,101879.88
2022-08-31T12:41:14.444Z,101878.47
2022-08-31T12:43:49.265Z,101867.34
2022-08-31T12:46:49.422Z,101868.59
2022-08-31T12:50:00.686Z,101874.50
2022-08-31T12:53:12.423Z,101873.41
2022-08-31T12:55:48.792Z,101865.88
2022-08-31T12:58:42.537Z,101869.50
2022-08-31T13:01:15.855Z,101862.59
2022-08-31T13:03:53.867Z,101866.97
2022-08-31T13:06:45.070Z,101867.97
2022-08-31T13:09:37.960Z,101870.06
2022-08-31T13:12:05.262Z,101862.75
2022-08-31T13:14:43.823Z,101863.53
2022-08-31T13:17:19.230Z,101864.44
2022-08-31T13:19:55.992Z,101856.78
2022-08-31T13:22:33.111Z,101861.91
2022-08-31T13:25:35.767Z,101871.59
2022-08-31T13:28:11.901Z,101852.78
2022-08-31T13:30:41.921Z,101850.81
2022-08-31T13:33:31.432Z,101842.47
2022-08-31T13:36:09.706Z,101852.69
2022-08-31T13:38:50.539Z,101853.28
2022-08-31T13:41:42.658Z,101847.34
2022-08-31T13:44:13.655Z,101831.44
2022-08-31T13:47:00.251Z,101839.97
2022-08-31T13:49:36.288Z,101834.00
2022-08-31T13:52:27.434Z,101842.97
2022-08-31T13:55:10.519Z,101834.34
2022-08-31T13:57:38.696Z,101826.25
2022-08-31T14:00:38.120Z,101828.75
2022-08-31T14:03:46.646Z,101824.53
2022-08-31T14:06:24.473Z,101824.91
2022-08-31T14:09:18.049Z,101839.97
2022-08-31T14:12:04.354Z,101830.13
2022-08-31T14:14:41.634Z,101837.03
2022-08-31T14:17:17.697Z,101832.03
2022-08-31T14:19:45.432Z,101832.44
2022-08-31T14:22:35.410Z,101825.19
2022-08-31T14:25:03.842Z,101825.56
2022-08-31T14:27:30.904Z,101821.81
2022-08-31T14:29:58.359Z,101819.19
2022-08-31T14:32:29.037Z,101815.09
2022-08-31T14:34:57.893Z,101824.41
2022-08-31T14:37:28.807Z,101811.09
2022-08-31T14:40:06.955Z,101809.41
2022-08-31T14:42:38.995Z,101809.09
2022-08-31T14:45:18.595Z,101810.38
2022-08-31T14:47:48.488Z,101816.47
2022-08-31T14:50:21.458Z,101810.88
2022-08-31T14:52:53.067Z,101801.34
2022-08-31T14:55:22.772Z,101808.94
2022-08-31T14:58:06.871Z,101815.50
2022-08-31T15:00:40.288Z,101807.75
2022-08-31T15:03:08.253Z,101805.22
2022-08-31T15:05:39.409Z,101796.47
2022-08-31T15:08:06.550Z,101795.50
2022-08-31T15:10:33.582Z,101813.41
2022-08-31T15:13:07.367Z,101806.16
2022-08-31T15:15:35.693Z,101798.16
2022-08-31T15:18:04.492Z,101797.56
2022-08-31T15:20:38.680Z,101797.50
2022-08-31T15:23:08.754Z,101801.28
2022-08-31T15:25:36.381Z,101807.31
2022-08-31T15:28:03.986Z,101805.66
2022-08-31T15:30:33.839Z,101794.78
2022-08-31T15:33:01.524Z,101799.78
2022-08-31T15:35:31.780Z,101797.78
2022-08-31T15:38:03.330Z,101800.94
2022-08-31T15:40:38.733Z,101803.44
2022-08-31T15:43:09.469Z,101799.06
2022-08-31T15:45:37.372Z,101800.56
2022-08-31T15:48:36.844Z,101789.75
2022-08-31T15:51:08.325Z,101787.00
2022-08-31T15:53:35.492Z,101790.66
2022-08-31T15:56:06.223Z,101789.81
2022-08-31T15:58:39.019Z,101783.56
2022-08-31T16:01:14.115Z,101785.47
2022-08-31T16:03:43.345Z,101784.72
2022-08-31T16:06:13.782Z,101787.94
2022-08-31T16:08:42.410Z,101785.25
2022-08-31T16:11:12.067Z,101789.56
2022-08-31T16:13:47.806Z,101794.81
2022-08-31T16:16:18.371Z,101790.66
2022-08-31T16:18:51.170Z,101793.41
2022-08-31T16:21:20.245Z,101791.25
2022-08-31T16:23:51.837Z,101791.81
2022-08-31T16:26:23.455Z,101777.94
2022-08-31T16:28:50.519Z,101774.22
2022-08-31T16:31:17.668Z,101782.44
2022-08-31T16:33:45.969Z,101780.84
2022-08-31T16:36:23.261Z,101783.59
2022-08-31T16:38:51.808Z,101776.13
2022-08-31T16:41:19.583Z,101778.16
2022-08-31T16:44:03.455Z,101777.84
2022-08-31T16:46:40.840Z,101779.19
2022-08-31T16:49:27.908Z,101772.69
2022-08-31T16:51:55.531Z,101773.63
2022-08-31T16:54:23.706Z,101776.59
2022-08-31T16:56:52.114Z,101780.69
2022-08-31T16:59:19.476Z,101781.16
2022-08-31T17:01:46.633Z,101773.97
2022-08-31T17:04:41.131Z,101775.06
2022-08-31T17:07:10.673Z,101773.00
2022-08-31T17:09:38.823Z,101774.13
2022-08-31T17:12:13.129Z,101773.72
2022-08-31T17:14:47.095Z,101774.34
2022-08-31T17:17:22.797Z,101765.28
2022-08-31T17:19:52.190Z,101768.53
2022-08-31T17:22:29.931Z,101767.63
2022-08-31T17:25:02.920Z,101764.09
2022-08-31T17:27:33.050Z,101759.75
2022-08-31T17:30:05.924Z,101758.59
2022-08-31T17:32:36.595Z,101766.13
2022-08-31T17:35:12.311Z,101769.84
2022-08-31T17:37:41.963Z,101777.81
2022-08-31T17:40:10.321Z,101766.06
2022-08-31T17:42:37.388Z,101774.38
2022-08-31T17:45:06.394Z,101777.09
2022-08-31T17:47:34.246Z,101780.03
2022-08-31T17:50:01.603Z,101778.47
2022-08-31T17:52:28.775Z,101781.31
2022-08-31T17:54:56.468Z,101793.97
2022-08-31T17:57:26.724Z,101792.56
2022-08-31T17:59:57.171Z,101785.59
2022-08-31T18:02:32.273Z,101794.28
2022-08-31T18:05:11.893Z,101798.97
2022-08-31T18:07:40.935Z,101800.53
2022-08-31T18:10:09.625Z,101797.28
2022-08-31T18:12:41.159Z,101793.63
2022-08-31T18:15:11.775Z,101802.09
2022-08-31T18:17:39.069Z,101797.59
2022-08-31T18:20:07.348Z,101799.59
2022-08-31T18:22:34.382Z,101810.66
2022-08-31T18:25:01.574Z,101803.50
2022-08-31T18:27:29.286Z,101804.44
2022-08-31T18:29:58.792Z,101808.38
2022-08-31T18:32:27.576Z,101812.09
2022-08-31T18:34:57.367Z,101815.78
2022-08-31T18:37:25.660Z,101815.25
2022-08-31T18:40:11.631Z,101813.56
2022-08-31T18:42:57.395Z,101824.22
2022-08-31T18:45:26.703Z,101820.16
2022-08-31T18:50:47.748Z,101834.72
2022-08-31T18:53:28.412Z,101831.53
2022-08-31T18:56:06.283Z,101840.47
2022-08-31T18:58:33.610Z,101819.22
2022-08-31T19:01:00.798Z,101835.56
2022-08-31T19:03:28.546Z,101832.22
2022-08-31T19:05:56.732Z,101835.97
2022-08-31T19:08:26.149Z,101834.34
2022-08-31T19:10:54.226Z,101831.06
2022-08-31T19:13:21.508Z,101843.66
2022-08-31T19:15:48.624Z,101849.13
2022-08-31T19:18:15.985Z,101844.88
2022-08-31T19:20:43.033Z,101861.91
2022-08-31T19:23:10.020Z,101853.25
2022-08-31T19:25:45.298Z,101851.56
2022-08-31T19:28:12.465Z,101861.38
2022-08-31T19:30:44.859Z,101858.00
2022-08-31T19:33:12.366Z,101852.78
2022-08-31T19:35:40.068Z,101862.75
2022-08-31T19:38:07.398Z,101853.03
2022-08-31T19:40:40.083Z,101854.97
2022-08-31T19:45:54.618Z,101850.72
2022-08-31T19:48:23.532Z,101857.00
2022-08-31T19:50:52.262Z,101852.69
2022-08-31T19:53:21.218Z,101856.34
2022-08-31T19:55:51.752Z,101857.25
2022-08-31T19:58:26.403Z,101861.94
2022-08-31T20:01:00.794Z,101859.22
2022-08-31T20:03:31.240Z,101867.44
2022-08-31T20:05:59.954Z,101862.91
2022-08-31T20:08:27.125Z,101863.88
2022-08-31T20:10:54.166Z,101860.50
2022-08-31T20:13:25.219Z,101866.88
2022-08-31T20:15:53.027Z,101861.50
2022-08-31T20:18:20.818Z,101862.53
2022-08-31T20:20:50.812Z,101851.00
2022-08-31T20:23:21.309Z,101855.41
2022-08-31T20:25:51.263Z,101855.63
2022-08-31T20:28:26.319Z,101858.28
2022-08-31T20:30:59.281Z,101846.06
2022-08-31T20:33:27.698Z,101853.31
2022-08-31T20:35:54.882Z,101855.19
2022-08-31T20:38:21.905Z,101848.94
2022-08-31T20:40:53.066Z,101857.03
2022-08-31T20:43:21.776Z,101853.47
2022-08-31T20:45:49.318Z,101864.22
2022-08-31T20:48:35.213Z,101851.88
2022-08-31T20:51:18.188Z,101858.28
2022-08-31T20:53:46.739Z,101861.88
2022-08-31T20:56:17.517Z,101848.75
2022-08-31T20:58:46.914Z,101856.69
2022-08-31T21:01:16.103Z,101857.66
2022-08-31T21:03:43.406Z,101855.03
2022-08-31T21:06:13.937Z,101852.44
2022-08-31T21:08:42.631Z,101851.66
2022-08-31T21:11:20.219Z,101859.75
2022-08-31T21:13:48.341Z,101861.53
2022-08-31T21:16:17.683Z,101854.50
2022-08-31T21:18:55.004Z,101863.38
2022-08-31T21:21:22.109Z,101865.28
2022-08-31T21:23:49.217Z,101852.94
2022-08-31T21:26:24.519Z,101860.13
2022-08-31T21:28:54.325Z,101860.09
2022-08-31T21:31:28.755Z,101864.72
2022-08-31T21:34:02.378Z,101861.28
2022-08-31T21:36:32.999Z,101859.47
2022-08-31T21:39:01.058Z,101856.03
2022-08-31T21:41:29.405Z,101858.75
2022-08-31T21:43:57.639Z,101861.47
2022-08-31T21:46:29.766Z,101863.34
2022-08-31T21:48:58.838Z,101857.22
2022-08-31T21:51:30.064Z,101856.34
2022-08-31T21:54:08.057Z,101863.59
2022-08-31T21:56:43.713Z,101867.00
2022-08-31T21:59:13.780Z,101860.78
2022-08-31T22:01:41.851Z,101861.69
2022-08-31T22:04:10.331Z,101857.25
2022-08-31T22:06:38.245Z,101859.94
2022-08-31T22:09:11.947Z,101859.03
2022-08-31T22:11:46.062Z,101866.13
2022-08-31T22:14:20.387Z,101863.34
2022-08-31T22:16:50.541Z,101863.28
2022-08-31T22:19:20.881Z,101866.91
2022-08-31T22:21:51.822Z,101867.78
2022-08-31T22:24:26.839Z,101873.88
2022-08-31T22:26:56.952Z,101870.25
2022-08-31T22:29:28.937Z,101867.69
2022-08-31T22:32:01.531Z,101876.53
2022-08-31T22:34:28.599Z,101865.88
2022-08-31T22:36:57.004Z,101869.47
2022-08-31T22:39:29.745Z,101870.31
2022-08-31T22:41:59.115Z,101869.53
2022-08-31T22:44:29.781Z,101869.53
2022-08-31T22:46:57.118Z,101871.31
2022-08-31T22:49:25.940Z,101870.44
2022-08-31T22:51:54.235Z,101865.06
2022-08-31T22:54:23.110Z,101869.56
2022-08-31T22:56:51.121Z,101868.81
2022-08-31T22:59:26.942Z,101856.38
2022-08-31T23:02:00.530Z,101854.78
2022-08-31T23:04:28.330Z,101861.09
2022-08-31T23:06:59.221Z,101852.25
2022-08-31T23:09:30.635Z,101856.75
2022-08-31T23:12:00.987Z,101855.00
2022-08-31T23:14:29.208Z,101854.22
2022-08-31T23:17:01.034Z,101850.69
2022-08-31T23:19:41.555Z,101854.41
2022-08-31T23:22:12.124Z,101850.91
2022-08-31T23:24:46.951Z,101849.25
2022-08-31T23:27:19.003Z,101853.72
2022-08-31T23:29:50.653Z,101850.22
2022-08-31T23:32:27.558Z,101848.50
2022-08-31T23:34:58.256Z,101853.13
2022-08-31T23:37:27.014Z,101847.84
2022-08-31T23:39:56.026Z,101847.06
2022-08-31T23:42:25.042Z,101842.69
2022-08-31T23:44:54.386Z,101833.03
2022-08-31T23:47:27.025Z,101835.78
2022-08-31T23:49:54.272Z,101835.84
2022-08-31T23:52:27.077Z,101831.44
2022-08-31T23:54:59.347Z,101829.72
2022-08-31T23:57:32.292Z,101828.03
